Time;durP1;ratioP1;P1;durP2;ratioP2;P2;SDS_P1;SDS_P2;PMS_P1;PMS_P2;Temp;Humidity;BMP_temperature;BMP_pressure;BME280_temperature;BME280_humidity;BME280_pressure;Samples;Min_cycle;Max_cycle;Signal;HPM_P1;HPM_P2
2022/01/07 00:00:21;;;;;;;7.53;2.35;;;8.80;99.90;;;8.21;100.00;101486.22;4153072;28;20022;-69
2022/01/07 00:02:22;;;;;;;5.45;2.38;;;8.90;99.90;;;8.23;100.00;101486.91;4149661;28;20030;-70
2022/01/07 00:04:23;;;;;;;5.82;2.30;;;8.80;99.90;;;8.21;100.00;101483.59;4156368;28;20033;-69
2022/01/07 00:06:24;;;;;;;6.95;2.70;;;9.30;99.90;;;8.25;100.00;101485.00;4175890;28;20049;-69
2022/01/07 00:08:26;;;;;;;5.38;2.00;;;8.80;99.90;;;8.15;100.00;101482.25;4157162;28;20061;-69
2022/01/07 00:10:27;;;;;;;6.35;3.05;;;8.90;99.90;;;8.18;100.00;101483.84;4154568;28;20489;-69
2022/01/07 00:12:30;;;;;;;6.78;2.88;;;8.70;99.90;;;8.16;100.00;101470.81;4166013;28;20116;-69
2022/01/07 00:14:31;;;;;;;5.75;3.28;;;8.80;99.90;;;8.13;100.00;101473.66;4167338;28;20508;-69
2022/01/07 00:16:32;;;;;;;7.70;2.60;;;8.70;99.90;;;8.15;100.00;101473.56;4152528;28;20462;-69
2022/01/07 00:18:33;;;;;;;9.35;2.67;;;8.80;99.90;;;8.19;100.00;101469.72;4152853;28;20060;-69
2022/01/07 00:20:35;;;;;;;5.55;2.58;;;8.80;99.90;;;8.29;100.00;101476.78;4168466;28;20443;-69
2022/01/07 00:22:38;;;;;;;9.57;2.33;;;8.80;99.90;;;8.27;100.00;101469.97;4144850;28;20037;-69
2022/01/07 00:24:39;;;;;;;4.72;2.40;;;8.80;99.90;;;8.30;100.00;101467.13;4168817;28;20033;-68
2022/01/07 00:26:41;;;;;;;6.32;2.35;;;8.90;99.90;;;8.23;100.00;101464.09;4167500;28;20057;-69
2022/01/07 00:28:42;;;;;;;8.20;2.88;;;8.80;99.90;;;8.38;100.00;101459.44;4169231;28;20048;-69
2022/01/07 00:30:43;;;;;;;7.75;2.50;;;8.90;99.90;;;8.36;100.00;101450.84;4168177;28;20029;-68
2022/01/07 00:32:44;;;;;;;8.07;2.50;;;8.90;99.90;;;8.48;100.00;101451.63;4168667;28;20048;-68
2022/01/07 00:34:45;;;;;;;6.90;2.85;;;9.00;99.90;;;8.42;100.00;101446.88;4168477;28;20040;-69
2022/01/07 00:36:46;;;;;;;6.80;2.53;;;9.00;99.90;;;8.25;100.00;101442.94;4156019;28;20034;-68
2022/01/07 00:38:47;;;;;;;6.57;2.45;;;9.00;99.90;;;8.29;100.00;101444.41;4156033;28;20042;-69
2022/01/07 00:40:48;;;;;;;11.13;3.63;;;9.10;99.90;;;8.45;100.00;101439.59;4155296;28;20057;-69
2022/01/07 00:42:50;;;;;;;9.20;3.72;;;8.90;99.90;;;8.54;100.00;101449.31;4180970;28;20034;-69
2022/01/07 00:44:51;;;;;;;9.50;4.30;;;9.00;99.90;;;8.41;100.00;101456.56;4161723;28;20036;-69
2022/01/07 00:46:52;;;;;;;9.52;3.85;;;10.10;99.90;;;8.47;100.00;101457.84;4155944;28;20034;-68
2022/01/07 00:48:53;;;;;;;10.18;3.20;;;9.10;99.90;;;8.60;100.00;101458.53;4155742;28;20677;-69
2022/01/07 00:50:54;;;;;;;11.25;3.70;;;9.00;99.90;;;8.51;100.00;101454.81;4155982;28;20076;-68
2022/01/07 00:52:55;;;;;;;14.02;4.00;;;8.90;99.90;;;8.59;100.00;101454.22;4154793;28;20026;-69
2022/01/07 00:54:56;;;;;;;8.90;3.67;;;9.00;99.90;;;8.57;100.00;101456.16;4169818;28;20031;-68
2022/01/07 00:56:57;;;;;;;8.60;3.42;;;9.00;99.90;;;8.46;100.00;101451.75;4162603;28;20105;-69
2022/01/07 00:58:58;;;;;;;11.35;3.70;;;9.00;99.90;;;8.52;100.00;101450.41;4170935;28;20030;-69
2022/01/07 01:00:59;;;;;;;12.15;3.40;;;9.00;99.90;;;8.28;100.00;101443.56;4172413;28;20049;-69
2022/01/07 01:03:00;;;;;;;15.07;2.85;;;9.00;99.90;;;8.27;100.00;101448.94;4172341;28;20403;-69
2022/01/07 01:05:02;;;;;;;11.88;3.70;;;8.90;99.90;;;8.31;100.00;101442.47;4158435;28;20037;-69
2022/01/07 01:07:04;;;;;;;12.23;3.42;;;9.00;99.90;;;8.34;100.00;101448.31;4171616;28;20115;-69
2022/01/07 01:09:05;;;;;;;11.65;3.10;;;9.00;99.90;;;8.34;100.00;101436.97;4154512;28;20091;-69
2022/01/07 01:11:05;;;;;;;18.55;3.85;;;8.90;99.90;;;8.34;100.00;101445.69;4162744;28;20509;-69
2022/01/07 01:13:06;;;;;;;15.93;4.25;;;8.90;99.90;;;8.50;100.00;101457.59;4155774;28;20026;-69
2022/01/07 01:15:12;;;;;;;12.77;4.13;;;8.90;99.90;;;8.45;100.00;101450.09;4158708;28;20040;-69
2022/01/07 01:17:13;;;;;;;20.85;5.70;;;8.90;99.90;;;8.35;100.00;101443.91;4164056;28;20038;-69
2022/01/07 01:19:14;;;;;;;10.98;5.45;;;8.90;99.90;;;8.23;100.00;101450.97;4164387;28;20038;-69
2022/01/07 01:21:15;;;;;;;13.38;5.15;;;8.80;99.90;;;8.27;100.00;101456.81;4159692;28;20022;-69
2022/01/07 01:23:16;;;;;;;13.05;4.88;;;8.80;99.90;;;8.20;100.00;101459.09;4154523;28;20037;-69
2022/01/07 01:25:17;;;;;;;14.18;5.63;;;8.70;99.90;;;8.22;100.00;101464.22;4144888;28;20024;-69
2022/01/07 01:27:19;;;;;;;12.85;6.45;;;8.70;99.90;;;7.96;100.00;101447.91;4175502;28;20029;-69
2022/01/07 01:29:22;;;;;;;10.80;4.30;;;8.10;99.90;;;7.98;100.00;101453.03;4162179;28;20497;-69
2022/01/07 01:31:23;;;;;;;13.60;5.13;;;8.50;99.90;;;7.98;100.00;101445.16;4166805;28;20030;-69
2022/01/07 01:33:23;;;;;;;15.00;5.03;;;8.50;99.90;;;8.02;100.00;101446.59;4159294;28;20655;-69
2022/01/07 01:35:25;;;;;;;10.52;4.40;;;8.30;99.90;;;7.87;100.00;101456.53;4169618;28;20497;-69
2022/01/07 01:37:29;;;;;;;21.52;5.28;;;8.30;99.90;;;7.87;100.00;101450.44;4154364;28;20056;-69
2022/01/07 01:39:30;;;;;;;16.17;4.90;;;8.30;99.90;;;7.87;100.00;101456.53;4151737;28;20061;-69
2022/01/07 01:41:31;;;;;;;14.43;4.57;;;8.30;99.90;;;7.85;100.00;101465.47;4159347;28;20053;-69
2022/01/07 01:43:32;;;;;;;11.57;3.95;;;8.20;99.90;;;7.76;100.00;101459.16;4158881;28;20030;-69
2022/01/07 01:45:33;;;;;;;16.67;4.43;;;8.10;99.90;;;7.76;100.00;101464.41;4153044;28;20022;-69
2022/01/07 01:47:34;;;;;;;15.93;4.70;;;8.10;99.90;;;7.73;100.00;101464.66;4153991;28;20037;-69
2022/01/07 01:49:35;;;;;;;18.13;5.88;;;8.10;99.90;;;7.71;100.00;101467.38;4167830;28;20056;-69
2022/01/07 01:51:37;;;;;;;12.43;4.00;;;8.00;99.90;;;7.73;100.00;101477.78;4168240;28;20505;-69
2022/01/07 01:53:39;;;;;;;14.90;4.55;;;8.10;99.90;;;7.65;100.00;101480.16;4168049;28;20037;-69
2022/01/07 01:55:40;;;;;;;13.13;4.03;;;8.00;99.90;;;7.61;100.00;101476.97;4176638;28;20098;-68
2022/01/07 01:57:41;;;;;;;15.98;4.25;;;7.90;99.90;;;7.56;100.00;101486.13;4163361;28;20037;-69
2022/01/07 01:59:42;;;;;;;14.10;3.88;;;7.90;99.90;;;7.50;100.00;101476.94;4176094;28;20528;-69
2022/01/07 02:01:43;;;;;;;12.18;4.07;;;7.90;99.90;;;7.52;100.00;101479.44;4161528;28;20032;-69
2022/01/07 02:03:44;;;;;;;16.77;4.38;;;7.90;99.90;;;7.44;100.00;101477.41;4167314;28;20029;-70
2022/01/07 02:05:46;;;;;;;18.05;5.13;;;7.80;99.90;;;7.37;100.00;101484.09;4172987;28;20040;-69
2022/01/07 02:07:47;;;;;;;15.45;6.53;;;7.80;99.90;;;7.41;100.00;101485.50;4167458;28;20047;-69
2022/01/07 02:09:48;;;;;;;16.35;4.82;;;7.80;99.90;;;7.35;100.00;101474.66;4152655;28;20113;-69
2022/01/07 02:11:49;;;;;;;15.25;6.43;;;7.90;99.90;;;7.33;100.00;101474.78;4152650;28;20029;-69
2022/01/07 02:13:58;;;;;;;20.77;7.00;;;7.70;99.90;;;7.27;100.00;101480.50;4156656;28;20441;-69
2022/01/07 02:15:59;;;;;;;12.43;4.20;;;7.70;99.90;;;7.12;100.00;101472.00;4167644;28;20022;-69
2022/01/07 02:18:00;;;;;;;16.50;5.97;;;7.60;99.90;;;7.07;100.00;101473.28;4167690;28;20035;-69
2022/01/07 02:20:01;;;;;;;13.68;3.67;;;7.50;99.90;;;7.10;100.00;101470.44;4165375;28;20030;-69
2022/01/07 02:22:03;;;;;;;9.77;3.30;;;7.50;99.90;;;7.13;100.00;101476.31;4153172;28;20018;-69
2022/01/07 02:24:06;;;;;;;14.18;5.15;;;7.50;99.90;;;7.06;100.00;101476.88;4144831;28;20087;-69
2022/01/07 02:26:08;;;;;;;16.60;3.97;;;7.40;99.90;;;7.04;100.00;101474.38;4164586;28;20100;-69
2022/01/07 02:28:09;;;;;;;14.00;4.22;;;7.50;99.90;;;7.01;100.00;101479.84;4167612;28;20524;-69
2022/01/07 02:30:16;;;;;;;18.27;4.05;;;7.50;99.90;;;7.10;100.00;101470.44;4167460;28;20072;-69
2022/01/07 02:32:18;;;;;;;18.80;4.53;;;7.30;99.90;;;7.19;100.00;101470.59;4167506;28;20573;-69
2022/01/07 02:34:19;;;;;;;15.27;4.10;;;7.50;99.90;;;7.16;100.00;101480.47;4179116;28;20163;-69
2022/01/07 02:36:20;;;;;;;22.63;4.43;;;7.50;99.90;;;7.15;100.00;101478.78;4150892;28;20073;-69
2022/01/07 02:38:21;;;;;;;20.92;6.22;;;7.50;99.90;;;7.15;100.00;101482.25;4158996;28;20037;-69
2022/01/07 02:40:22;;;;;;;18.88;4.65;;;7.50;99.90;;;7.16;100.00;101480.47;4156210;28;20584;-69
2022/01/07 02:42:25;;;;;;;17.85;5.22;;;7.50;99.90;;;7.03;100.00;101471.84;4164106;28;20081;-69
2022/01/07 02:44:27;;;;;;;17.10;5.05;;;7.40;99.90;;;7.03;100.00;101469.22;4155767;28;20031;-69
2022/01/07 02:46:28;;;;;;;23.13;5.43;;;7.50;99.90;;;7.08;100.00;101474.94;4168447;28;20435;-69
2022/01/07 02:48:29;;;;;;;26.38;5.78;;;7.50;99.90;;;7.15;100.00;101457.81;4141553;28;20461;-70
2022/01/07 02:50:35;;;;;;;21.63;4.18;;;7.50;99.90;;;7.09;100.00;101459.09;4163045;28;20041;-69
2022/01/07 02:52:36;;;;;;;16.75;4.28;;;7.50;99.90;;;6.98;100.00;101463.50;4167206;28;20044;-69
2022/01/07 02:54:37;;;;;;;15.77;4.13;;;7.50;99.90;;;7.06;100.00;101464.59;4166075;28;20058;-69
2022/01/07 02:56:38;;;;;;;22.98;4.53;;;7.50;99.90;;;6.97;100.00;101467.91;4166074;28;20110;-69
2022/01/07 02:58:39;;;;;;;25.83;4.95;;;7.40;99.90;;;7.00;100.00;101467.66;4153782;28;20026;-69
2022/01/07 03:00:40;;;;;;;28.48;5.38;;;7.50;99.90;;;7.02;100.00;101473.63;4170670;28;20029;-69
2022/01/07 03:02:41;;;;;;;13.48;4.70;;;7.50;99.90;;;7.00;100.00;101478.16;4171056;28;20137;-69
2022/01/07 03:04:42;;;;;;;18.25;5.38;;;7.50;99.90;;;7.09;100.00;101479.25;4161118;28;20151;-69
2022/01/07 03:06:43;;;;;;;27.58;5.32;;;7.60;99.90;;;7.20;100.00;101481.91;4179554;28;20037;-69
2022/01/07 03:08:49;;;;;;;18.05;4.28;;;7.50;99.90;;;7.31;100.00;101492.44;4151188;28;20470;-69
2022/01/07 03:10:50;;;;;;;23.63;5.30;;;7.60;99.90;;;7.37;100.00;101483.25;4157472;28;20032;-69
2022/01/07 03:12:54;;;;;;;22.30;5.43;;;7.80;99.90;;;7.14;100.00;101485.81;4167048;28;20029;-68
2022/01/07 03:14:56;;;;;;;19.92;4.10;;;7.70;99.90;;;7.02;100.00;101480.66;4166825;28;20060;-68
2022/01/07 03:16:56;;;;;;;14.45;3.72;;;7.80;99.90;;;7.07;100.00;101483.78;4170744;28;20048;-68
2022/01/07 03:18:57;;;;;;;22.27;5.40;;;7.80;99.90;;;7.01;100.00;101487.72;4151909;28;20425;-68
2022/01/07 03:20:59;;;;;;;22.40;5.50;;;7.70;99.90;;;7.12;100.00;101481.66;4150360;28;20038;-68
2022/01/07 03:23:00;;;;;;;14.57;4.65;;;7.70;99.90;;;7.23;100.00;101490.38;4152693;28;20026;-69
2022/01/07 03:25:01;;;;;;;18.98;5.28;;;7.80;99.90;;;7.23;100.00;101473.78;4154357;28;20091;-69
2022/01/07 03:27:02;;;;;;;26.70;9.18;;;7.80;99.90;;;7.34;100.00;101476.44;4159086;28;20081;-69
2022/01/07 03:29:03;;;;;;;22.55;5.85;;;7.80;99.90;;;7.35;100.00;101479.91;4162113;28;20116;-69
2022/01/07 03:31:06;;;;;;;19.52;5.63;;;7.80;99.90;;;7.33;100.00;101479.19;4167680;28;20408;-69
2022/01/07 03:33:07;;;;;;;22.10;6.18;;;7.80;99.90;;;7.31;100.00;101466.19;4162260;28;20029;-68
2022/01/07 03:35:11;;;;;;;22.23;4.50;;;7.70;99.90;;;7.36;100.00;101469.28;4158890;28;20048;-68
2022/01/07 03:37:11;;;;;;;15.68;5.75;;;7.90;99.90;;;7.38;100.00;101467.38;4167600;28;20041;-68
2022/01/07 03:39:12;;;;;;;21.38;5.88;;;7.90;99.90;;;7.39;100.00;101471.69;4151814;28;20057;-69
2022/01/07 03:41:13;;;;;;;24.77;5.97;;;7.90;99.90;;;7.24;100.00;101464.97;4154886;28;20036;-68
2022/01/07 03:43:15;;;;;;;18.10;4.88;;;7.90;99.90;;;7.30;100.00;101469.75;4150245;28;20092;-68
2022/01/07 03:45:17;;;;;;;19.48;5.32;;;8.10;99.90;;;7.21;100.00;101475.69;4162935;28;20033;-69
2022/01/07 03:47:18;;;;;;;18.73;5.88;;;7.90;99.90;;;7.02;100.00;101486.75;4151548;28;20026;-69
2022/01/07 03:49:19;;;;;;;20.27;3.80;;;7.80;99.90;;;7.26;100.00;101485.88;4149953;28;20091;-69
2022/01/07 03:51:20;;;;;;;18.15;4.53;;;7.90;99.90;;;7.32;100.00;101494.09;4150101;28;20033;-69
2022/01/07 03:53:24;;;;;;;17.25;3.95;;;7.90;99.90;;;7.22;100.00;101499.22;4151457;28;20057;-69
2022/01/07 03:55:29;;;;;;;19.95;3.95;;;7.90;99.90;;;7.29;100.00;101496.94;4166747;28;20028;-69
2022/01/07 03:57:30;;;;;;;12.70;3.78;;;7.90;99.90;;;7.27;100.00;101496.22;4136961;28;20025;-69
2022/01/07 03:59:32;;;;;;;14.93;4.22;;;7.90;99.90;;;7.24;100.00;101492.06;4150141;28;20026;-69
2022/01/07 04:01:33;;;;;;;12.95;3.47;;;7.90;99.90;;;7.24;100.00;101496.47;4150122;28;20025;-69
2022/01/07 04:03:34;;;;;;;16.60;4.55;;;7.90;99.90;;;7.35;100.00;101499.09;4151049;28;20029;-69
2022/01/07 04:05:35;;;;;;;17.80;4.20;;;7.90;99.90;;;7.08;100.00;101495.94;4153512;28;20120;-68
2022/01/07 04:07:35;;;;;;;15.13;3.42;;;7.90;99.90;;;7.06;100.00;101503.09;4166134;28;20072;-69
2022/01/07 04:09:37;;;;;;;9.40;3.20;;;7.80;99.90;;;6.98;100.00;101502.84;4157496;28;20034;-68
2022/01/07 04:11:38;;;;;;;21.90;4.28;;;7.70;99.90;;;7.00;100.00;101504.41;4151093;28;20041;-69
2022/01/07 04:13:38;;;;;;;22.00;4.57;;;7.60;99.90;;;7.01;100.00;101486.88;4153368;28;20037;-69
2022/01/07 04:15:39;;;;;;;18.23;4.40;;;7.60;99.90;;;6.77;100.00;101492.16;4166275;28;20096;-69
2022/01/07 04:17:45;;;;;;;18.17;4.07;;;7.50;99.90;;;6.74;100.00;101494.16;4157427;28;20065;-68
2022/01/07 04:19:46;;;;;;;13.65;3.75;;;7.50;99.90;;;6.73;100.00;101498.56;4163524;28;20026;-69
2022/01/07 04:21:49;;;;;;;11.90;3.13;;;7.40;99.90;;;6.72;100.00;101498.69;4163339;28;20045;-69
2022/01/07 04:23:50;;;;;;;22.15;3.92;;;7.30;99.90;;;6.62;100.00;101488.88;4151028;28;20018;-69
2022/01/07 04:25:50;;;;;;;13.05;3.80;;;7.30;99.90;;;6.60;100.00;101490.75;4160419;28;20029;-69
2022/01/07 04:27:59;;;;;;;18.95;3.88;;;7.20;99.90;;;6.77;100.00;101484.28;4154587;28;20022;-69
2022/01/07 04:30:00;;;;;;;11.70;4.45;;;7.30;99.90;;;6.72;100.00;101486.41;4173589;28;20029;-69
2022/01/07 04:32:05;;;;;;;16.25;4.95;;;7.30;99.90;;;6.55;100.00;101479.78;4158216;28;20022;-69
2022/01/07 04:34:06;;;;;;;11.65;4.07;;;7.20;99.90;;;6.60;100.00;101477.66;4161569;28;20021;-69
2022/01/07 04:36:07;;;;;;;13.50;4.75;;;7.20;99.90;;;6.64;100.00;101484.34;4166746;28;20053;-69
2022/01/07 04:38:09;;;;;;;11.43;3.88;;;7.10;99.90;;;6.59;100.00;101477.78;4155131;28;20029;-69
2022/01/07 04:40:13;;;;;;;16.00;3.80;;;7.00;99.90;;;6.72;100.00;101485.59;4166071;28;20084;-69
2022/01/07 04:42:14;;;;;;;9.18;3.05;;;7.10;99.90;;;6.73;100.00;101484.63;4154668;28;20025;-69
2022/01/07 04:44:15;;;;;;;12.10;3.50;;;7.00;99.90;;;6.60;100.00;101484.72;4149670;28;20471;-69
2022/01/07 04:46:16;;;;;;;14.18;3.60;;;7.00;99.90;;;6.63;100.00;101489.72;4156840;28;20030;-69
2022/01/07 04:48:18;;;;;;;11.55;3.42;;;7.00;99.90;;;6.63;100.00;101487.91;4163677;28;20103;-69
2022/01/07 04:50:21;;;;;;;10.85;4.32;;;7.00;99.90;;;6.64;100.00;101481.72;4155290;28;20032;-69
2022/01/07 04:52:22;;;;;;;16.38;4.57;;;7.40;99.90;;;6.65;100.00;101483.41;4151904;28;20030;-69
2022/01/07 04:54:23;;;;;;;19.15;3.65;;;6.90;99.90;;;6.60;100.00;101496.00;4154085;28;20080;-68
2022/01/07 04:56:24;;;;;;;11.35;3.25;;;6.90;99.90;;;6.53;100.00;101504.44;4166828;28;20038;-68
2022/01/07 04:58:26;;;;;;;14.05;3.90;;;6.90;99.90;;;6.57;100.00;101511.94;4165707;28;20029;-69
2022/01/07 05:00:26;;;;;;;13.90;3.50;;;6.90;99.90;;;6.60;100.00;101506.47;4165840;28;20025;-69
2022/01/07 05:02:27;;;;;;;11.05;3.78;;;6.90;99.90;;;6.55;100.00;101518.25;4161464;28;20080;-69
2022/01/07 05:04:28;;;;;;;9.85;3.85;;;6.80;99.90;;;6.51;100.00;101506.34;4158017;28;20507;-68
2022/01/07 05:06:45;;;;;;;13.48;3.72;;;6.80;99.90;;;6.43;100.00;101513.91;4154599;28;20543;-69
2022/01/07 05:08:46;;;;;;;12.65;4.43;;;6.70;99.90;;;6.43;100.00;101509.50;4178543;28;20544;-69
2022/01/07 05:10:47;;;;;;;10.82;4.25;;;6.80;99.90;;;6.47;100.00;101508.34;4158754;28;20036;-69
2022/01/07 05:12:48;;;;;;;16.65;6.20;;;6.70;99.90;;;6.26;100.00;101515.13;4168860;28;20040;-69
2022/01/07 05:14:49;;;;;;;10.85;4.50;;;6.70;99.90;;;6.24;100.00;101519.66;4155823;28;20022;-69
2022/01/07 05:16:50;;;;;;;15.88;4.43;;;6.70;99.90;;;6.51;100.00;101528.13;4152015;28;20033;-69
2022/01/07 05:18:50;;;;;;;11.02;4.85;;;6.80;99.90;;;6.43;100.00;101519.16;4153329;28;20085;-69
2022/01/07 05:20:51;;;;;;;19.67;4.65;;;6.80;99.90;;;6.48;100.00;101512.63;4152133;28;20036;-69
2022/01/07 05:22:52;;;;;;;16.48;5.05;;;6.90;99.90;;;6.59;100.00;101515.31;4167655;28;20091;-69
2022/01/07 05:24:53;;;;;;;13.73;4.35;;;6.90;99.90;;;6.57;100.00;101516.38;4168590;28;20042;-69
2022/01/07 05:26:54;;;;;;;11.48;4.80;;;7.00;99.90;;;6.67;100.00;101512.13;4162171;28;20092;-69
2022/01/07 05:28:55;;;;;;;12.25;3.80;;;7.00;99.90;;;6.52;100.00;101508.00;4161621;28;20040;-69
2022/01/07 05:30:56;;;;;;;12.35;4.65;;;7.10;99.90;;;6.47;100.00;101503.09;4164964;28;20037;-69
2022/01/07 05:32:57;;;;;;;12.85;3.63;;;6.90;99.90;;;6.58;100.00;101515.41;4153462;28;20033;-69
2022/01/07 05:34:58;;;;;;;13.77;3.70;;;7.00;99.90;;;6.59;100.00;101514.47;4153071;28;20030;-69
2022/01/07 05:36:59;;;;;;;12.18;4.25;;;7.00;99.90;;;6.57;100.00;101527.69;4151785;28;20030;-69
2022/01/07 05:39:01;;;;;;;13.02;4.32;;;7.00;99.90;;;6.53;100.00;101531.50;4152030;28;20030;-69
2022/01/07 05:41:02;;;;;;;16.17;4.15;;;6.90;99.90;;;6.42;100.00;101528.78;4169128;28;20443;-68
2022/01/07 05:43:03;;;;;;;16.70;5.57;;;6.90;99.90;;;6.41;100.00;101528.91;4169615;28;20029;-68
2022/01/07 05:45:05;;;;;;;13.77;4.82;;;6.80;99.90;;;6.29;100.00;101538.50;4169578;28;20041;-69
2022/01/07 05:47:06;;;;;;;14.63;3.63;;;6.80;99.90;;;6.30;100.00;101547.19;4151739;28;20428;-69
2022/01/07 05:49:07;;;;;;;13.63;4.72;;;6.90;99.90;;;6.12;100.00;101544.09;4155321;28;20034;-69
2022/01/07 05:51:08;;;;;;;9.23;3.75;;;6.80;99.90;;;6.16;100.00;101556.00;4157109;28;20078;-69
2022/01/07 05:53:10;;;;;;;12.45;4.38;;;6.70;99.90;;;6.25;100.00;101555.34;4161008;28;20173;-68
2022/01/07 05:55:11;;;;;;;17.20;4.65;;;6.70;99.90;;;6.16;100.00;101553.38;4148586;28;20021;-68
2022/01/07 05:57:11;;;;;;;12.77;4.78;;;6.70;99.90;;;6.27;100.00;101553.50;4140468;28;20038;-69
2022/01/07 05:59:12;;;;;;;13.10;4.43;;;6.70;99.90;;;6.11;100.00;101553.72;4163000;28;20382;-69
2022/01/07 06:01:13;;;;;;;13.05;4.00;;;6.60;99.90;;;6.10;100.00;101562.50;4152936;28;20375;-69
2022/01/07 06:03:14;;;;;;;13.75;4.85;;;6.60;99.90;;;6.14;100.00;101563.16;4151425;28;20030;-69
2022/01/07 06:05:15;;;;;;;18.88;6.00;;;6.50;99.90;;;6.09;100.00;101568.69;4166502;28;20029;-69
2022/01/07 06:07:16;;;;;;;12.32;4.78;;;6.50;99.90;;;6.14;100.00;101560.53;4163870;28;20453;-69
2022/01/07 06:09:17;;;;;;;17.92;5.55;;;6.50;99.90;;;5.96;100.00;101556.56;4151695;28;20501;-69
2022/01/07 06:11:19;;;;;;;16.70;5.47;;;6.50;99.90;;;5.95;100.00;101560.13;4162328;28;20575;-69
2022/01/07 06:13:20;;;;;;;16.67;5.80;;;6.50;99.90;;;6.13;100.00;101559.69;4181815;28;20126;-68
2022/01/07 06:15:21;;;;;;;14.25;5.22;;;6.40;99.90;;;5.95;100.00;101563.56;4151500;28;20121;-69
2022/01/07 06:17:22;;;;;;;13.98;5.22;;;6.40;99.90;;;5.86;100.00;101571.22;4158493;28;20032;-69
2022/01/07 06:19:23;;;;;;;12.80;5.70;;;6.30;99.90;;;5.97;100.00;101571.34;4167103;28;20041;-69
2022/01/07 06:21:25;;;;;;;15.93;5.43;;;6.00;99.90;;;5.87;100.00;101575.53;4159117;28;20024;-68
2022/01/07 06:23:26;;;;;;;12.82;4.60;;;6.30;99.90;;;6.00;100.00;101571.94;4176039;28;20029;-69
2022/01/07 06:25:27;;;;;;;13.00;4.63;;;6.30;99.90;;;6.17;100.00;101578.66;4158782;28;20215;-69
2022/01/07 06:27:28;;;;;;;12.80;5.03;;;6.30;99.90;;;6.00;100.00;101579.81;4156735;28;20037;-69
2022/01/07 06:29:29;;;;;;;14.57;3.95;;;6.40;99.90;;;6.18;100.00;101571.63;4166586;28;20029;-69
2022/01/07 06:31:30;;;;;;;12.40;3.70;;;6.40;99.90;;;5.95;100.00;101581.06;4168575;28;20026;-69
2022/01/07 06:33:32;;;;;;;13.32;4.25;;;6.40;99.90;;;5.96;100.00;101582.75;4167268;28;20487;-69
2022/01/07 06:35:33;;;;;;;11.38;4.50;;;6.30;99.90;;;6.03;100.00;101579.59;4167572;28;20033;-69
2022/01/07 06:37:34;;;;;;;12.35;4.78;;;6.40;99.90;;;6.07;100.00;101573.22;4168490;28;20103;-69
2022/01/07 06:39:35;;;;;;;14.98;4.95;;;6.40;99.90;;;6.04;100.00;101577.81;4167360;28;20147;-69
2022/01/07 06:41:36;;;;;;;13.60;3.88;;;6.50;99.90;;;6.06;100.00;101587.22;4160067;28;20022;-68
2022/01/07 06:43:37;;;;;;;14.68;4.28;;;6.40;99.90;;;6.19;100.00;101581.13;4150976;28;20029;-68
2022/01/07 06:45:38;;;;;;;12.30;3.53;;;6.50;99.90;;;6.12;100.00;101584.19;4150814;28;20084;-69
2022/01/07 06:47:39;;;;;;;17.73;3.63;;;6.50;99.90;;;6.10;100.00;101574.75;4153364;28;20481;-69
2022/01/07 06:49:40;;;;;;;14.57;3.10;;;6.60;99.90;;;6.15;100.00;101574.47;4156177;28;20025;-69
2022/01/07 06:51:42;;;;;;;10.60;3.20;;;6.60;99.90;;;6.13;100.00;101575.41;4158341;28;20580;-69
2022/01/07 06:53:43;;;;;;;10.52;4.50;;;6.70;99.90;;;6.18;100.00;101588.19;4163246;28;20079;-69
2022/01/07 06:55:44;;;;;;;12.23;3.47;;;6.80;99.90;;;6.34;100.00;101577.44;4174173;28;20123;-69
2022/01/07 06:57:45;;;;;;;19.08;3.45;;;6.80;99.90;;;6.31;100.00;101575.03;4155456;28;20866;-68
2022/01/07 06:59:46;;;;;;;13.98;4.00;;;6.90;99.90;;;6.39;100.00;101577.97;4159842;28;20033;-69
2022/01/07 07:01:47;;;;;;;11.73;3.30;;;6.90;99.90;;;6.34;100.00;101586.16;4167060;28;20393;-69
2022/01/07 07:03:48;;;;;;;14.68;3.90;;;6.90;99.90;;;6.13;100.00;101606.00;4151501;28;20046;-69
2022/01/07 07:05:49;;;;;;;15.95;4.18;;;6.90;99.90;;;6.21;100.00;101629.03;4151857;28;20073;-69
2022/01/07 07:07:51;;;;;;;13.73;4.03;;;7.00;99.90;;;6.31;100.00;101612.56;4143065;28;20050;-69
2022/01/07 07:09:52;;;;;;;7.35;3.17;;;7.00;99.90;;;6.27;100.00;101607.66;4155617;28;20081;-69
2022/01/07 07:11:53;;;;;;;13.50;3.33;;;7.10;99.90;;;6.17;100.00;101611.84;4154309;28;20117;-69
2022/01/07 07:13:54;;;;;;;10.98;3.17;;;7.00;99.90;;;6.29;100.00;101617.09;4168083;28;20069;-69
2022/01/07 07:15:55;;;;;;;7.05;3.22;;;7.00;99.90;;;6.33;100.00;101629.00;4167941;28;20120;-69
2022/01/07 07:17:55;;;;;;;11.63;3.40;;;6.00;99.90;;;6.03;100.00;101636.41;4180355;28;20133;-69
2022/01/07 07:19:57;;;;;;;14.40;3.15;;;7.00;99.90;;;6.20;100.00;101641.31;4151359;28;20060;-69
2022/01/07 07:21:58;;;;;;;12.75;3.38;;;6.90;99.90;;;6.32;100.00;101635.22;4166563;28;20096;-69
2022/01/07 07:23:58;;;;;;;12.82;3.90;;;6.90;99.90;;;6.22;100.00;101642.03;4150351;28;20029;-69
2022/01/07 07:25:59;;;;;;;14.32;3.13;;;6.90;99.90;;;6.33;100.00;101649.97;4162707;28;20370;-69
2022/01/07 07:28:00;;;;;;;13.63;3.78;;;6.90;99.90;;;6.17;100.00;101644.13;4156416;28;20125;-69
2022/01/07 07:30:04;;;;;;;13.75;3.90;;;6.90;99.90;;;6.03;100.00;101645.06;4160071;28;20033;-69
2022/01/07 07:32:09;;;;;;;9.90;4.30;;;6.80;99.90;;;5.98;100.00;101646.31;4151548;28;20131;-69
2022/01/07 07:36:44;;;;;;;9.85;3.72;;;6.80;99.90;;;5.87;100.00;101641.00;4160425;28;20072;-69
2022/01/07 07:38:45;;;;;;;11.32;4.75;;;6.70;99.90;;;5.91;100.00;101640.66;4160990;28;20025;-69
2022/01/07 07:40:46;;;;;;;9.02;3.00;;;6.70;99.90;;;6.06;100.00;101631.75;4152226;28;20046;-69
2022/01/07 07:42:47;;;;;;;13.10;3.58;;;7.90;99.90;;;6.16;100.00;101634.59;4151158;28;20097;-69
2022/01/07 07:44:48;;;;;;;11.68;3.40;;;6.70;99.90;;;6.21;100.00;101632.50;4157654;28;20029;-69
2022/01/07 07:46:49;;;;;;;9.30;3.60;;;6.60;99.90;;;6.10;100.00;101632.41;4156628;28;20033;-69
2022/01/07 07:48:51;;;;;;;9.27;4.05;;;6.60;99.90;;;6.18;100.00;101631.88;4163594;28;20053;-69
2022/01/07 07:50:52;;;;;;;8.52;3.42;;;6.70;99.90;;;6.14;100.00;101636.50;4150917;28;20092;-69
2022/01/07 07:52:53;;;;;;;12.63;3.13;;;6.50;99.90;;;6.10;100.00;101635.84;4160877;28;20543;-69
2022/01/07 07:54:54;;;;;;;7.15;3.10;;;6.70;99.90;;;6.14;100.00;101636.50;4161935;28;20167;-69
2022/01/07 07:56:57;;;;;;;9.93;3.65;;;6.70;99.90;;;6.11;100.00;101631.47;4160060;28;20041;-69
2022/01/07 07:58:59;;;;;;;5.43;2.70;;;6.60;99.90;;;6.07;100.00;101629.97;4159193;28;20056;-69
2022/01/07 08:01:01;;;;;;;8.07;2.92;;;6.50;99.90;;;6.16;100.00;101641.59;4139183;28;20109;-69
2022/01/07 08:03:02;;;;;;;14.38;3.33;;;6.50;99.90;;;6.21;100.00;101643.00;4165909;28;20029;-69
2022/01/07 08:05:03;;;;;;;10.75;3.20;;;6.60;99.90;;;6.06;100.00;101646.66;4166210;28;20021;-69
2022/01/07 08:07:05;;;;;;;12.00;3.30;;;6.60;99.90;;;6.22;100.00;101646.41;4166973;28;20164;-69
2022/01/07 08:09:05;;;;;;;11.23;3.80;;;6.30;99.90;;;6.08;100.00;101650.00;4160107;28;20057;-69
2022/01/07 08:11:09;;;;;;;11.52;3.20;;;6.40;99.90;;;6.13;100.00;101653.13;4160308;28;20071;-69
2022/01/07 08:17:31;;;;;;;10.40;4.13;;;6.40;99.90;;;5.87;100.00;101664.56;4158615;28;20036;-69
2022/01/07 08:19:32;;;;;;;12.73;3.17;;;6.40;99.90;;;5.73;100.00;101656.75;4178811;28;20802;-69
2022/01/07 08:21:34;;;;;;;11.63;3.33;;;6.30;99.90;;;5.67;100.00;101644.09;4150668;28;20109;-69
2022/01/07 08:23:40;;;;;;;13.40;3.97;;;6.20;99.90;;;5.65;100.00;101648.56;4176925;28;20113;-69
2022/01/07 08:25:42;;;;;;;14.30;5.18;;;6.20;99.90;;;5.57;100.00;101660.41;4158714;28;20475;-69
2022/01/07 08:27:42;;;;;;;18.27;4.60;;;6.20;99.90;;;5.50;100.00;101653.03;4162300;28;20029;-69
2022/01/07 08:29:43;;;;;;;11.23;4.32;;;6.10;99.90;;;5.63;100.00;101651.28;4153842;28;20033;-69
2022/01/07 08:36:05;;;;;;;11.43;5.10;;;6.10;99.90;;;5.56;100.00;101671.78;4154227;28;20500;-69